createdAt,value
2023-04-30T00:02:02.439Z,100.00
2023-04-30T00:04:29.096Z,100.00
2023-04-30T00:06:55.845Z,100.00
2023-04-30T00:09:22.539Z,100.00
2023-04-30T00:11:49.158Z,100.00
2023-04-30T00:14:16.507Z,100.00
2023-04-30T00:16:43.326Z,100.00
2023-04-30T00:19:10.505Z,100.00
2023-04-30T00:21:37.198Z,100.00
2023-04-30T00:24:04.334Z,100.00
2023-04-30T00:26:31.130Z,100.00
2023-04-30T00:28:57.966Z,100.00
2023-04-30T00:31:24.780Z,100.00
2023-04-30T00:33:52.030Z,100.00
2023-04-30T00:36:18.716Z,100.00
2023-04-30T00:38:45.419Z,100.00
2023-04-30T00:41:12.439Z,100.00
2023-04-30T00:43:39.110Z,100.00
2023-04-30T00:46:06.892Z,100.00
2023-04-30T00:48:33.770Z,100.00
2023-04-30T00:51:03.056Z,100.00
2023-04-30T00:53:29.841Z,100.00
2023-04-30T00:55:57.183Z,100.00
2023-04-30T00:58:24.151Z,100.00
2023-04-30T01:00:51.260Z,100.00
2023-04-30T01:03:18.039Z,100.00
2023-04-30T01:05:44.839Z,100.00
2023-04-30T01:08:11.925Z,100.00
2023-04-30T01:11:17.620Z,100.00
2023-04-30T01:13:58.615Z,100.00
2023-04-30T01:16:40.328Z,100.00
2023-04-30T01:19:17.863Z,100.00
2023-04-30T01:21:45.430Z,100.00
2023-04-30T01:24:52.132Z,100.00
2023-04-30T01:27:32.150Z,100.00
2023-04-30T01:30:01.948Z,100.00
2023-04-30T01:32:28.706Z,100.00
2023-04-30T01:34:55.493Z,100.00
2023-04-30T01:37:29.334Z,100.00
2023-04-30T01:40:07.996Z,100.00
2023-04-30T01:42:49.980Z,100.00
2023-04-30T01:45:25.003Z,100.00
2023-04-30T01:48:02.129Z,100.00
2023-04-30T01:50:28.929Z,100.00
2023-04-30T01:52:59.836Z,100.00
2023-04-30T01:55:43.704Z,100.00
2023-04-30T01:58:13.096Z,100.00
2023-04-30T02:00:39.940Z,100.00
2023-04-30T02:03:07.263Z,100.00
2023-04-30T02:05:34.393Z,100.00
2023-04-30T02:08:01.092Z,100.00
2023-04-30T02:10:29.628Z,100.00
2023-04-30T02:12:56.563Z,100.00
2023-04-30T02:15:23.433Z,100.00
2023-04-30T02:17:50.627Z,100.00
2023-04-30T02:20:17.520Z,100.00
2023-04-30T02:22:44.195Z,100.00
2023-04-30T02:25:12.720Z,100.00
2023-04-30T02:27:39.776Z,100.00
2023-04-30T02:30:07.206Z,100.00
2023-04-30T02:32:33.937Z,100.00
2023-04-30T02:35:00.987Z,100.00
2023-04-30T02:37:27.652Z,100.00
2023-04-30T02:39:54.785Z,100.00
2023-04-30T02:42:21.933Z,100.00
2023-04-30T02:44:48.780Z,100.00
2023-04-30T02:47:15.502Z,100.00
2023-04-30T02:49:42.180Z,100.00
2023-04-30T02:52:10.101Z,100.00
2023-04-30T02:54:37.288Z,100.00
2023-04-30T02:57:04.394Z,100.00
2023-04-30T02:59:31.173Z,100.00
2023-04-30T03:01:57.936Z,100.00
2023-04-30T03:04:24.716Z,100.00
2023-04-30T03:06:51.409Z,100.00
2023-04-30T03:09:18.264Z,100.00
2023-04-30T03:11:44.954Z,100.00
2023-04-30T03:14:11.665Z,100.00
2023-04-30T03:16:38.469Z,100.00
2023-04-30T03:19:05.100Z,100.00
2023-04-30T03:21:32.736Z,100.00
2023-04-30T03:23:59.431Z,100.00
2023-04-30T03:26:26.198Z,100.00
2023-04-30T03:28:55.329Z,100.00
2023-04-30T03:31:22.140Z,100.00
2023-04-30T03:33:48.900Z,100.00
2023-04-30T03:36:15.873Z,100.00
2023-04-30T03:38:43.080Z,100.00
2023-04-30T03:41:09.932Z,100.00
2023-04-30T03:43:38.061Z,100.00
2023-04-30T03:46:05.096Z,100.00
2023-04-30T03:48:31.935Z,100.00
2023-04-30T03:50:58.627Z,100.00
2023-04-30T03:53:26.861Z,100.00
2023-04-30T03:55:54.936Z,100.00
2023-04-30T03:58:22.308Z,100.00
2023-04-30T04:00:49.217Z,100.00
2023-04-30T04:03:16.602Z,100.00
2023-04-30T04:05:43.338Z,100.00
2023-04-30T04:08:11.047Z,100.00
2023-04-30T04:10:39.056Z,100.00
2023-04-30T04:13:06.724Z,100.00
2023-04-30T04:15:34.228Z,100.00
2023-04-30T04:18:01.105Z,100.00
2023-04-30T04:20:30.051Z,100.00
2023-04-30T04:22:57.372Z,100.00
2023-04-30T04:25:25.479Z,100.00
2023-04-30T04:27:52.596Z,100.00
2023-04-30T04:30:19.885Z,100.00
2023-04-30T04:32:48.606Z,100.00
2023-04-30T04:35:16.116Z,100.00
2023-04-30T04:37:43.008Z,100.00
2023-04-30T04:40:12.936Z,100.00
2023-04-30T04:42:39.838Z,100.00
2023-04-30T04:45:15.907Z,100.00
2023-04-30T04:47:42.710Z,100.00
2023-04-30T04:50:10.036Z,100.00
2023-04-30T04:52:37.015Z,100.00
2023-04-30T04:55:04.088Z,100.00
2023-04-30T04:57:31.010Z,100.00
2023-04-30T04:59:58.101Z,100.00
2023-04-30T05:02:25.098Z,100.00
2023-04-30T05:04:51.937Z,100.00
2023-04-30T05:07:18.925Z,100.00
2023-04-30T05:09:49.144Z,100.00
2023-04-30T05:12:16.001Z,100.00
2023-04-30T05:14:43.296Z,100.00
2023-04-30T05:17:10.098Z,100.00
2023-04-30T05:19:36.922Z,100.00
2023-04-30T05:22:04.598Z,100.00
2023-04-30T05:24:31.487Z,100.00
2023-04-30T05:26:58.534Z,100.00
2023-04-30T05:29:25.454Z,100.00
2023-04-30T05:31:52.317Z,100.00
2023-04-30T05:34:18.995Z,100.00
2023-04-30T05:36:45.844Z,100.00
2023-04-30T05:39:12.588Z,100.00
2023-04-30T05:41:39.440Z,100.00
2023-04-30T05:44:06.647Z,100.00
2023-04-30T05:46:33.633Z,100.00
2023-04-30T05:49:00.333Z,100.00
2023-04-30T05:51:27.993Z,100.00
2023-04-30T05:53:54.777Z,100.00
2023-04-30T05:56:21.549Z,100.00
2023-04-30T05:58:48.244Z,100.00
2023-04-30T06:01:15.738Z,100.00
2023-04-30T06:03:42.466Z,100.00
2023-04-30T06:06:09.409Z,100.00
2023-04-30T06:08:36.473Z,100.00
2023-04-30T06:11:05.231Z,100.00
2023-04-30T06:13:32.795Z,100.00
2023-04-30T06:15:59.648Z,100.00
2023-04-30T06:18:26.289Z,100.00
2023-04-30T06:20:53.057Z,100.00
2023-04-30T06:23:19.647Z,100.00
2023-04-30T06:25:46.391Z,100.00
2023-04-30T06:28:17.095Z,100.00
2023-04-30T06:30:43.974Z,100.00
2023-04-30T06:33:10.722Z,100.00
2023-04-30T06:35:37.563Z,100.00
2023-04-30T06:38:04.301Z,100.00
2023-04-30T06:40:31.102Z,100.00
2023-04-30T06:42:57.781Z,100.00
2023-04-30T06:45:24.423Z,100.00
2023-04-30T06:47:52.089Z,100.00
2023-04-30T06:50:19.439Z,100.00
2023-04-30T06:52:46.148Z,100.00
2023-04-30T06:55:12.832Z,100.00
2023-04-30T06:57:40.146Z,100.00
2023-04-30T07:00:07.733Z,100.00
2023-04-30T07:02:34.772Z,100.00
2023-04-30T07:05:01.620Z,100.00
2023-04-30T07:07:28.460Z,100.00
2023-04-30T07:09:55.469Z,100.00
2023-04-30T07:12:22.733Z,100.00
2023-04-30T07:14:49.564Z,100.00
2023-04-30T07:17:16.526Z,98.85
2023-04-30T07:19:43.692Z,100.00
2023-04-30T07:22:10.358Z,100.00
2023-04-30T07:24:37.056Z,100.00
2023-04-30T07:27:04.404Z,100.00
2023-04-30T07:29:31.805Z,100.00
2023-04-30T07:31:58.603Z,100.00
2023-04-30T07:34:25.482Z,96.24
2023-04-30T07:36:52.290Z,95.66
2023-04-30T07:39:19.292Z,96.16
2023-04-30T07:41:46.200Z,94.11
2023-04-30T07:44:12.920Z,91.07
2023-04-30T07:46:39.782Z,93.15
2023-04-30T07:49:06.646Z,93.81
2023-04-30T07:51:34.190Z,91.37
2023-04-30T07:54:01.064Z,90.43
2023-04-30T07:56:27.778Z,90.54
2023-04-30T07:58:54.397Z,82.78
2023-04-30T08:01:21.414Z,78.10
2023-04-30T08:03:48.231Z,80.95
2023-04-30T08:06:15.021Z,81.79
2023-04-30T08:08:41.657Z,78.07
2023-04-30T08:11:08.343Z,74.61
2023-04-30T08:13:34.978Z,69.24
2023-04-30T08:16:02.031Z,69.04
2023-04-30T08:18:30.187Z,65.96
2023-04-30T08:20:56.966Z,64.91
2023-04-30T08:23:23.635Z,66.82
2023-04-30T08:25:50.352Z,65.19
2023-04-30T08:28:17.896Z,64.14
2023-04-30T08:30:44.946Z,65.07
2023-04-30T08:33:12.010Z,59.71
2023-04-30T08:35:38.729Z,58.61
2023-04-30T08:38:05.912Z,57.00
2023-04-30T08:40:50.367Z,56.83
2023-04-30T08:43:19.349Z,56.33
2023-04-30T08:45:46.408Z,55.68
2023-04-30T08:48:16.484Z,60.51
2023-04-30T08:50:43.590Z,55.21
2023-04-30T08:56:06.121Z,57.59
2023-04-30T08:58:32.843Z,54.14
2023-04-30T09:01:00.355Z,53.35
2023-04-30T09:03:28.644Z,50.99
2023-04-30T09:05:56.252Z,50.50
2023-04-30T09:08:47.082Z,52.94
2023-04-30T09:11:28.379Z,48.37
2023-04-30T09:13:57.325Z,49.15
2023-04-30T09:16:25.582Z,49.56
2023-04-30T09:18:53.021Z,50.95
2023-04-30T09:21:33.534Z,52.84
2023-04-30T09:24:03.031Z,50.57
2023-04-30T09:26:35.315Z,49.47
2023-04-30T09:29:07.935Z,49.99
2023-04-30T09:31:38.942Z,50.36
2023-04-30T09:34:09.004Z,51.83
2023-04-30T09:36:36.044Z,49.79
2023-04-30T09:39:15.675Z,50.28
2023-04-30T09:41:43.186Z,51.33
2023-04-30T09:44:28.184Z,44.86
2023-04-30T09:46:57.710Z,43.37
2023-04-30T09:49:25.238Z,44.56
2023-04-30T09:52:01.935Z,46.12
2023-04-30T09:54:30.176Z,45.70
2023-04-30T09:56:59.277Z,44.39
2023-04-30T09:59:33.079Z,42.89
2023-04-30T10:02:01.562Z,43.62
2023-04-30T10:04:34.133Z,44.69
2023-04-30T10:07:04.735Z,45.37
2023-04-30T10:09:40.066Z,44.98
2023-04-30T10:12:14.115Z,44.80
2023-04-30T10:14:48.200Z,43.54
2023-04-30T10:17:18.277Z,43.43
2023-04-30T10:19:49.627Z,43.34
2023-04-30T10:22:16.511Z,44.77
2023-04-30T10:24:44.950Z,46.58
2023-04-30T10:27:12.173Z,46.20
2023-04-30T10:29:38.872Z,48.81
2023-04-30T10:32:07.702Z,49.58
2023-04-30T10:34:53.616Z,47.78
2023-04-30T10:38:03.501Z,47.34
2023-04-30T10:40:37.229Z,46.76
2023-04-30T10:43:04.236Z,46.38
2023-04-30T10:45:47.377Z,46.07
2023-04-30T10:48:16.747Z,44.52
2023-04-30T10:50:46.766Z,46.63
2023-04-30T10:53:18.969Z,44.85
2023-04-30T10:55:53.768Z,44.31
2023-04-30T10:58:30.807Z,43.88
2023-04-30T11:01:12.892Z,43.34
2023-04-30T11:03:44.307Z,44.71
2023-04-30T11:06:15.239Z,45.58
2023-04-30T11:08:46.795Z,44.48
2023-04-30T11:11:21.345Z,43.55
2023-04-30T11:13:59.796Z,42.98
2023-04-30T11:16:31.418Z,43.59
2023-04-30T11:19:09.467Z,45.37
2023-04-30T11:21:41.734Z,43.71
2023-04-30T11:24:08.648Z,44.79
2023-04-30T11:27:03.730Z,43.56
2023-04-30T11:29:31.830Z,43.09
2023-04-30T11:32:01.386Z,44.27
2023-04-30T11:34:29.084Z,43.99
2023-04-30T11:36:59.444Z,44.32
2023-04-30T11:39:28.602Z,44.52
2023-04-30T11:41:56.008Z,45.25
2023-04-30T11:44:24.139Z,44.35
2023-04-30T11:46:51.304Z,45.16
2023-04-30T11:49:18.203Z,44.19
2023-04-30T11:51:50.159Z,41.83
2023-04-30T11:54:17.634Z,42.08
2023-04-30T11:56:48.771Z,44.28
2023-04-30T11:59:16.831Z,44.30
2023-04-30T12:01:44.490Z,44.50
2023-04-30T12:04:11.764Z,44.29
2023-04-30T12:06:38.590Z,44.49
2023-04-30T12:09:07.405Z,44.78
2023-04-30T12:11:35.284Z,44.65
2023-04-30T12:14:03.642Z,43.45
2023-04-30T12:16:40.927Z,42.50
2023-04-30T12:19:07.842Z,43.24
2023-04-30T12:21:34.830Z,41.52
2023-04-30T12:24:03.350Z,41.68
2023-04-30T12:26:38.878Z,42.18
2023-04-30T12:29:09.155Z,42.44
2023-04-30T12:31:37.486Z,41.78
2023-04-30T12:34:09.580Z,40.31
2023-04-30T12:36:41.602Z,41.12
2023-04-30T12:39:18.539Z,39.22
2023-04-30T12:41:47.924Z,39.93
2023-04-30T12:44:25.612Z,39.02
2023-04-30T12:46:57.760Z,37.88
2023-04-30T12:49:29.196Z,39.58
2023-04-30T12:52:01.424Z,40.26
2023-04-30T12:54:30.080Z,41.53
2023-04-30T12:57:01.438Z,42.33
2023-04-30T12:59:29.826Z,42.48
2023-04-30T13:02:14.939Z,43.58
2023-04-30T13:04:43.048Z,45.31
2023-04-30T13:07:10.497Z,47.92
2023-04-30T13:09:38.118Z,48.31
2023-04-30T13:12:05.183Z,49.58
2023-04-30T13:14:32.566Z,50.21
2023-04-30T13:16:59.833Z,51.00
2023-04-30T13:19:27.000Z,51.73
2023-04-30T13:21:53.893Z,54.55
2023-04-30T13:24:20.769Z,59.60
2023-04-30T13:26:48.345Z,61.46
2023-04-30T13:29:15.198Z,62.84
2023-04-30T13:31:42.565Z,66.86
2023-04-30T13:34:10.290Z,67.67
2023-04-30T13:36:37.371Z,77.41
2023-04-30T13:39:05.047Z,82.18
2023-04-30T13:41:32.114Z,91.35
2023-04-30T13:44:00.228Z,100.00
2023-04-30T13:46:27.306Z,100.00
2023-04-30T13:48:54.270Z,100.00
2023-04-30T13:51:21.441Z,100.00
2023-04-30T13:53:48.149Z,100.00
2023-04-30T13:56:15.601Z,100.00
2023-04-30T13:58:42.545Z,95.05
2023-04-30T14:01:10.608Z,95.48
2023-04-30T14:03:37.609Z,100.00
2023-04-30T14:06:05.968Z,90.30
2023-04-30T14:08:34.040Z,97.48
2023-04-30T14:11:01.192Z,100.00
2023-04-30T14:13:27.906Z,100.00
2023-04-30T14:15:56.471Z,100.00
2023-04-30T14:18:23.716Z,100.00
2023-04-30T14:20:51.056Z,96.38
2023-04-30T14:23:17.896Z,85.80
2023-04-30T14:25:44.668Z,91.92
2023-04-30T14:28:12.218Z,97.20
2023-04-30T14:30:39.043Z,97.50
2023-04-30T14:33:06.186Z,100.00
2023-04-30T14:35:33.754Z,100.00
2023-04-30T14:38:00.479Z,100.00
2023-04-30T14:40:27.352Z,100.00
2023-04-30T14:42:53.992Z,100.00
2023-04-30T14:45:20.971Z,100.00
2023-04-30T14:47:47.986Z,93.56
2023-04-30T14:50:15.015Z,83.49
2023-04-30T14:52:42.238Z,81.37
2023-04-30T14:55:09.285Z,91.23
2023-04-30T14:57:36.723Z,98.03
2023-04-30T15:00:04.241Z,97.10
2023-04-30T15:02:31.121Z,90.94
2023-04-30T15:04:58.028Z,92.49
2023-04-30T15:07:24.678Z,93.16
2023-04-30T15:09:52.929Z,93.66
2023-04-30T15:12:20.320Z,96.23
2023-04-30T15:14:47.086Z,89.07
2023-04-30T15:17:14.009Z,86.24
2023-04-30T15:19:40.815Z,82.54
2023-04-30T15:22:08.127Z,82.77
2023-04-30T15:24:35.882Z,76.42
2023-04-30T15:27:02.648Z,81.12
2023-04-30T15:29:29.459Z,78.46
2023-04-30T15:31:56.843Z,77.14
2023-04-30T15:34:24.047Z,76.51
2023-04-30T15:36:51.096Z,75.63
2023-04-30T15:39:19.275Z,75.09
2023-04-30T15:41:46.008Z,71.18
2023-04-30T15:44:12.682Z,66.72
2023-04-30T15:46:39.536Z,66.23
2023-04-30T15:49:06.488Z,66.47
2023-04-30T15:51:34.271Z,69.73
2023-04-30T15:54:01.121Z,70.56
2023-04-30T15:56:28.641Z,72.68
2023-04-30T15:58:56.112Z,71.31
2023-04-30T16:01:23.702Z,70.51
2023-04-30T16:03:50.776Z,71.54
2023-04-30T16:06:18.102Z,71.87
2023-04-30T16:08:46.468Z,73.28
2023-04-30T16:11:13.179Z,72.45
2023-04-30T16:13:40.394Z,74.29
2023-04-30T16:16:08.965Z,83.43
2023-04-30T16:18:36.012Z,89.89
2023-04-30T16:21:03.105Z,92.46
2023-04-30T16:23:29.856Z,92.11
2023-04-30T16:25:57.050Z,91.53
2023-04-30T16:28:24.520Z,94.01
2023-04-30T16:30:51.532Z,94.40
2023-04-30T16:33:18.232Z,88.09
2023-04-30T16:35:45.019Z,86.23
2023-04-30T16:38:11.832Z,84.79
2023-04-30T16:40:38.551Z,84.86
2023-04-30T16:43:06.326Z,88.19
2023-04-30T16:45:33.575Z,84.39
2023-04-30T16:48:00.588Z,85.73
2023-04-30T16:50:27.873Z,87.05
2023-04-30T16:52:54.778Z,90.54
2023-04-30T16:55:21.863Z,94.79
2023-04-30T16:57:48.917Z,100.00
2023-04-30T17:00:17.030Z,100.00
2023-04-30T17:02:49.194Z,100.00
2023-04-30T17:05:16.059Z,100.00
2023-04-30T17:07:44.463Z,100.00
2023-04-30T17:10:12.817Z,100.00
2023-04-30T17:12:40.340Z,100.00
2023-04-30T17:15:07.779Z,100.00
2023-04-30T17:17:34.670Z,100.00
2023-04-30T17:20:01.458Z,100.00
2023-04-30T17:22:28.236Z,100.00
2023-04-30T17:24:55.167Z,100.00
2023-04-30T17:27:22.048Z,100.00
2023-04-30T17:29:48.707Z,100.00
2023-04-30T17:32:17.723Z,100.00
2023-04-30T17:34:44.817Z,100.00
2023-04-30T17:37:11.504Z,100.00
2023-04-30T17:39:38.311Z,100.00
2023-04-30T17:42:05.634Z,100.00
2023-04-30T17:44:33.796Z,100.00
2023-04-30T17:47:00.487Z,100.00
2023-04-30T17:49:28.005Z,100.00
2023-04-30T17:51:54.726Z,100.00
2023-04-30T17:54:21.523Z,100.00
2023-04-30T17:56:48.599Z,100.00
2023-04-30T17:59:15.913Z,100.00
2023-04-30T18:01:42.792Z,100.00
2023-04-30T18:04:09.719Z,100.00
2023-04-30T18:06:36.599Z,100.00
2023-04-30T18:09:04.322Z,100.00
2023-04-30T18:11:31.247Z,100.00
2023-04-30T18:13:58.665Z,100.00
2023-04-30T18:16:25.539Z,100.00
2023-04-30T18:18:52.338Z,100.00
2023-04-30T18:21:19.186Z,100.00
2023-04-30T18:23:46.157Z,100.00
2023-04-30T18:26:13.069Z,100.00
2023-04-30T18:28:39.819Z,100.00
2023-04-30T18:31:06.601Z,100.00
2023-04-30T18:33:33.704Z,100.00
2023-04-30T18:36:05.298Z,100.00
2023-04-30T18:38:32.511Z,100.00
2023-04-30T18:41:00.115Z,100.00
2023-04-30T18:43:26.820Z,100.00
2023-04-30T18:45:53.660Z,100.00
2023-04-30T18:48:22.889Z,100.00
2023-04-30T18:50:50.470Z,100.00
2023-04-30T18:53:18.103Z,100.00
2023-04-30T18:55:45.641Z,100.00
2023-04-30T18:58:12.493Z,100.00
2023-04-30T19:00:43.222Z,100.00
2023-04-30T19:03:10.408Z,100.00
2023-04-30T19:05:37.832Z,100.00
2023-04-30T19:08:04.728Z,100.00
2023-04-30T19:10:31.552Z,100.00
2023-04-30T19:12:58.359Z,100.00
2023-04-30T19:15:25.752Z,100.00
2023-04-30T19:17:52.556Z,100.00
2023-04-30T19:20:19.358Z,100.00
2023-04-30T19:22:46.538Z,100.00
2023-04-30T19:25:14.043Z,100.00
2023-04-30T19:27:41.102Z,100.00
2023-04-30T19:30:08.436Z,100.00
2023-04-30T19:32:35.456Z,100.00
2023-04-30T19:35:02.253Z,100.00
2023-04-30T19:37:29.494Z,100.00
2023-04-30T19:39:56.552Z,100.00
2023-04-30T19:42:23.503Z,100.00
2023-04-30T19:44:53.256Z,100.00
2023-04-30T19:47:20.090Z,100.00
2023-04-30T19:49:47.552Z,100.00
2023-04-30T19:52:14.922Z,100.00
2023-04-30T19:54:48.536Z,100.00
2023-04-30T19:57:15.406Z,100.00
2023-04-30T19:59:42.148Z,100.00
2023-04-30T20:02:09.755Z,100.00
2023-04-30T20:04:37.390Z,100.00
2023-04-30T20:07:04.511Z,100.00
2023-04-30T20:09:31.195Z,100.00
2023-04-30T20:11:57.894Z,100.00
2023-04-30T20:14:24.802Z,100.00
2023-04-30T20:16:55.125Z,100.00
2023-04-30T20:19:22.493Z,100.00
2023-04-30T20:21:49.610Z,100.00
2023-04-30T20:24:16.499Z,100.00
2023-04-30T20:26:43.705Z,100.00
2023-04-30T20:29:10.622Z,100.00
2023-04-30T20:31:37.842Z,100.00
2023-04-30T20:34:05.015Z,100.00
2023-04-30T20:36:32.515Z,100.00
2023-04-30T20:38:59.309Z,100.00
2023-04-30T20:41:26.655Z,100.00
2023-04-30T20:43:54.191Z,100.00
2023-04-30T20:46:22.989Z,100.00
2023-04-30T20:48:49.854Z,100.00
2023-04-30T20:51:16.498Z,100.00
2023-04-30T20:53:43.209Z,100.00
2023-04-30T20:56:09.892Z,100.00
2023-04-30T20:58:37.011Z,100.00
2023-04-30T21:01:04.089Z,100.00
2023-04-30T21:03:30.804Z,100.00
2023-04-30T21:05:57.620Z,100.00
2023-04-30T21:08:24.429Z,100.00
2023-04-30T21:10:51.225Z,100.00
2023-04-30T21:13:17.932Z,100.00
2023-04-30T21:15:45.578Z,100.00
2023-04-30T21:18:12.408Z,100.00
2023-04-30T21:20:39.148Z,100.00
2023-04-30T21:23:05.820Z,100.00
2023-04-30T21:25:32.444Z,100.00
2023-04-30T21:27:59.186Z,100.00
2023-04-30T21:30:26.669Z,100.00
2023-04-30T21:32:58.482Z,100.00
2023-04-30T21:35:25.918Z,100.00
2023-04-30T21:37:52.641Z,100.00
2023-04-30T21:40:19.349Z,100.00
2023-04-30T21:42:46.063Z,100.00
2023-04-30T21:45:13.359Z,100.00
2023-04-30T21:47:40.318Z,100.00
2023-04-30T21:50:07.861Z,100.00
2023-04-30T21:52:34.713Z,100.00
2023-04-30T21:55:01.505Z,100.00
2023-04-30T21:57:28.138Z,100.00
2023-04-30T21:59:55.126Z,100.00
2023-04-30T22:02:24.172Z,100.00
2023-04-30T22:04:51.479Z,100.00
2023-04-30T22:07:18.383Z,100.00
2023-04-30T22:09:45.673Z,100.00
2023-04-30T22:12:12.837Z,100.00
2023-04-30T22:14:39.590Z,100.00
2023-04-30T22:17:06.636Z,100.00
2023-04-30T22:19:33.272Z,100.00
2023-04-30T22:22:00.163Z,100.00
2023-04-30T22:24:26.799Z,100.00
2023-04-30T22:26:53.498Z,100.00
2023-04-30T22:29:20.538Z,100.00
2023-04-30T22:31:47.652Z,100.00
2023-04-30T22:34:18.077Z,100.00
2023-04-30T22:36:46.185Z,100.00
2023-04-30T22:39:13.454Z,100.00
2023-04-30T22:41:40.669Z,100.00
2023-04-30T22:44:07.757Z,100.00
2023-04-30T22:46:36.866Z,100.00
2023-04-30T22:49:03.866Z,100.00
2023-04-30T22:51:31.797Z,100.00
2023-04-30T22:53:58.850Z,100.00
2023-04-30T22:56:25.619Z,100.00
2023-04-30T22:58:52.431Z,100.00
2023-04-30T23:01:20.250Z,100.00
2023-04-30T23:03:47.373Z,100.00
2023-04-30T23:06:14.634Z,100.00
2023-04-30T23:08:41.449Z,100.00
2023-04-30T23:11:08.221Z,100.00
2023-04-30T23:13:35.173Z,100.00
2023-04-30T23:16:05.685Z,100.00
2023-04-30T23:18:32.510Z,100.00
2023-04-30T23:20:59.320Z,100.00
2023-04-30T23:23:26.628Z,100.00
2023-04-30T23:25:53.572Z,100.00
2023-04-30T23:28:20.460Z,100.00
2023-04-30T23:30:51.023Z,100.00
2023-04-30T23:33:18.508Z,100.00
2023-04-30T23:35:45.954Z,100.00
2023-04-30T23:38:13.663Z,100.00
2023-04-30T23:40:42.154Z,100.00
2023-04-30T23:43:09.731Z,100.00
2023-04-30T23:45:36.480Z,100.00
2023-04-30T23:48:03.285Z,100.00
2023-04-30T23:50:30.109Z,100.00
2023-04-30T23:52:57.118Z,100.00
2023-04-30T23:55:23.752Z,100.00
2023-04-30T23:57:50.600Z,100.00
